createdAt,value
2022-10-10T00:01:44.160Z,3.88
2022-10-10T00:04:11.577Z,5.38
2022-10-10T00:06:38.773Z,4.75
2022-10-10T00:09:14.734Z,4.72
2022-10-10T00:11:41.912Z,3.17
2022-10-10T00:14:09.117Z,4.30
2022-10-10T00:16:39.730Z,4.22
2022-10-10T00:19:10.448Z,3.92
2022-10-10T00:21:37.885Z,4.45
2022-10-10T00:24:05.507Z,3.75
2022-10-10T00:26:32.605Z,3.72
2022-10-10T00:28:59.710Z,4.20
2022-10-10T00:31:26.826Z,3.80
2022-10-10T00:33:53.897Z,3.92
2022-10-10T00:36:21.521Z,3.35
2022-10-10T00:38:48.694Z,3.42
2022-10-10T00:41:15.839Z,3.65
2022-10-10T00:43:42.947Z,3.72
2022-10-10T00:46:10.102Z,3.67
2022-10-10T00:48:43.679Z,4.28
2022-10-10T00:51:16.743Z,4.28
2022-10-10T00:53:52.810Z,4.30
2022-10-10T00:56:25.591Z,3.53
2022-10-10T00:58:56.325Z,3.70
2022-10-10T01:01:23.548Z,4.13
2022-10-10T01:03:50.761Z,3.10
2022-10-10T01:06:17.914Z,3.47
2022-10-10T01:08:45.150Z,2.95
2022-10-10T01:11:38.135Z,3.70
2022-10-10T01:14:12.431Z,3.30
2022-10-10T01:17:07.258Z,3.63
2022-10-10T01:19:58.770Z,3.10
2022-10-10T01:23:06.748Z,2.92
2022-10-10T01:25:48.982Z,3.42
2022-10-10T01:28:37.502Z,2.80
2022-10-10T01:31:07.594Z,2.90
2022-10-10T01:33:48.749Z,3.03
2022-10-10T01:36:32.659Z,2.20
2022-10-10T01:39:26.885Z,2.78
2022-10-10T01:42:03.604Z,3.20
2022-10-10T01:44:30.679Z,2.40
2022-10-10T01:46:58.720Z,2.83
2022-10-10T01:49:30.663Z,2.85
2022-10-10T01:52:18.222Z,2.17
2022-10-10T01:55:03.134Z,2.40
2022-10-10T01:57:36.332Z,3.03
2022-10-10T02:00:18.038Z,2.90
2022-10-10T02:02:55.959Z,2.22
2022-10-10T02:05:30.065Z,2.47
2022-10-10T02:08:33.217Z,2.78
2022-10-10T02:11:06.780Z,2.90
2022-10-10T02:13:55.862Z,2.33
2022-10-10T02:16:29.067Z,2.35
2022-10-10T02:18:59.916Z,2.47
2022-10-10T02:21:27.800Z,3.22
2022-10-10T02:23:59.786Z,2.45
2022-10-10T02:26:28.383Z,1.98
2022-10-10T02:29:04.897Z,2.65
2022-10-10T02:31:38.276Z,2.30
2022-10-10T02:34:13.587Z,2.30
2022-10-10T02:36:44.002Z,2.42
2022-10-10T02:39:13.213Z,2.85
2022-10-10T02:41:42.759Z,2.20
2022-10-10T02:44:11.593Z,2.10
2022-10-10T02:46:38.790Z,2.42
2022-10-10T02:49:08.716Z,2.55
2022-10-10T02:51:35.893Z,2.85
2022-10-10T02:54:03.031Z,2.60
2022-10-10T02:56:30.108Z,2.00
2022-10-10T02:58:57.661Z,2.67
2022-10-10T03:01:25.083Z,2.33
2022-10-10T03:03:52.129Z,2.10
2022-10-10T03:06:19.920Z,2.45
2022-10-10T03:08:47.133Z,2.15
2022-10-10T03:11:14.193Z,2.78
2022-10-10T03:13:41.341Z,2.50
2022-10-10T03:16:08.574Z,2.63
2022-10-10T03:18:35.866Z,2.20
2022-10-10T03:21:03.289Z,1.77
2022-10-10T03:23:30.500Z,2.67
2022-10-10T03:25:57.677Z,2.67
2022-10-10T03:28:24.819Z,2.38
2022-10-10T03:30:51.901Z,2.42
2022-10-10T03:33:19.033Z,2.88
2022-10-10T03:35:46.162Z,2.03
2022-10-10T03:38:14.061Z,2.10
2022-10-10T03:40:43.315Z,2.28
2022-10-10T03:43:12.283Z,2.10
2022-10-10T03:45:41.568Z,2.40
2022-10-10T03:48:08.628Z,2.40
2022-10-10T03:50:36.081Z,2.55
2022-10-10T03:53:03.801Z,3.15
2022-10-10T03:55:30.859Z,2.10
2022-10-10T03:57:58.192Z,1.88
2022-10-10T04:00:25.418Z,2.20
2022-10-10T04:02:53.854Z,2.25
2022-10-10T04:05:21.068Z,2.45
2022-10-10T04:07:48.131Z,2.28
2022-10-10T04:10:15.515Z,2.10
2022-10-10T04:12:42.672Z,2.10
2022-10-10T04:15:10.303Z,2.47
2022-10-10T04:17:37.348Z,1.75
2022-10-10T04:20:04.781Z,2.30
2022-10-10T04:22:32.124Z,2.10
2022-10-10T04:24:59.189Z,2.50
2022-10-10T04:27:26.377Z,1.80
2022-10-10T04:29:53.452Z,2.20
2022-10-10T04:32:20.494Z,1.90
2022-10-10T04:34:47.619Z,1.77
2022-10-10T04:37:14.678Z,2.17
2022-10-10T04:39:41.723Z,1.85
2022-10-10T04:42:08.848Z,1.90
2022-10-10T04:44:35.967Z,1.65
2022-10-10T04:47:03.144Z,1.70
2022-10-10T04:49:30.281Z,1.65
2022-10-10T04:51:57.381Z,1.40
2022-10-10T04:54:24.654Z,1.40
2022-10-10T04:56:51.769Z,1.40
2022-10-10T04:59:18.822Z,1.75
2022-10-10T05:01:45.876Z,2.10
2022-10-10T05:04:14.307Z,2.40
2022-10-10T05:06:41.400Z,1.33
2022-10-10T05:09:08.583Z,1.45
2022-10-10T05:11:35.743Z,1.67
2022-10-10T05:14:03.204Z,1.25
2022-10-10T05:16:30.697Z,2.45
2022-10-10T05:18:57.878Z,1.60
2022-10-10T05:21:25.778Z,2.03
2022-10-10T05:23:52.899Z,1.85
2022-10-10T05:26:20.751Z,2.05
2022-10-10T05:28:48.064Z,1.40
2022-10-10T05:31:15.205Z,1.67
2022-10-10T05:33:42.321Z,2.00
2022-10-10T05:36:12.104Z,2.03
2022-10-10T05:38:40.334Z,2.10
2022-10-10T05:41:08.455Z,1.90
2022-10-10T05:43:35.923Z,1.92
2022-10-10T05:46:03.421Z,1.75
2022-10-10T05:48:31.077Z,2.08
2022-10-10T05:50:59.671Z,2.17
2022-10-10T05:53:28.764Z,2.40
2022-10-10T05:55:55.986Z,2.67
2022-10-10T05:58:23.165Z,2.05
2022-10-10T06:00:50.399Z,1.98
2022-10-10T06:03:17.577Z,3.15
2022-10-10T06:05:48.480Z,3.45
2022-10-10T06:08:15.846Z,2.53
2022-10-10T06:10:45.540Z,3.22
2022-10-10T06:13:14.873Z,3.55
2022-10-10T06:15:42.298Z,3.92
2022-10-10T06:18:10.128Z,4.30
2022-10-10T06:20:38.586Z,3.65
2022-10-10T06:23:07.320Z,2.70
2022-10-10T06:25:40.551Z,2.67
2022-10-10T06:28:08.378Z,3.25
2022-10-10T06:30:40.276Z,2.80
2022-10-10T06:33:07.729Z,2.80
2022-10-10T06:35:39.516Z,3.05
2022-10-10T06:38:06.714Z,2.90
2022-10-10T06:40:38.309Z,3.47
2022-10-10T06:43:12.455Z,3.00
2022-10-10T06:45:46.174Z,4.63
2022-10-10T06:48:15.283Z,3.85
2022-10-10T06:51:21.200Z,3.60
2022-10-10T06:53:57.692Z,4.10
2022-10-10T06:56:27.827Z,3.63
2022-10-10T06:58:55.452Z,3.67
2022-10-10T07:01:24.158Z,4.40
2022-10-10T07:03:51.279Z,4.53
2022-10-10T07:06:18.726Z,4.03
2022-10-10T07:08:46.039Z,4.72
2022-10-10T07:11:13.224Z,4.40
2022-10-10T07:13:40.591Z,2.95
2022-10-10T07:16:08.489Z,1.80
2022-10-10T07:18:36.917Z,1.75
2022-10-10T07:21:04.834Z,2.17
2022-10-10T07:23:32.968Z,2.03
2022-10-10T07:26:01.820Z,2.22
2022-10-10T07:28:29.662Z,2.10
2022-10-10T07:31:02.808Z,1.63
2022-10-10T07:33:36.393Z,1.85
2022-10-10T07:36:05.098Z,1.60
2022-10-10T07:38:34.161Z,1.75
2022-10-10T07:41:01.255Z,2.53
2022-10-10T07:43:28.266Z,2.40
2022-10-10T07:45:56.183Z,1.88
2022-10-10T07:48:46.168Z,1.95
2022-10-10T07:51:23.627Z,1.55
2022-10-10T07:53:52.677Z,1.83
2022-10-10T07:56:19.882Z,1.58
2022-10-10T07:58:46.975Z,2.00
2022-10-10T08:01:14.262Z,1.45
2022-10-10T08:03:41.762Z,1.23
2022-10-10T08:06:12.275Z,1.63
2022-10-10T08:09:00.721Z,1.58
2022-10-10T08:11:27.879Z,2.00
2022-10-10T08:13:55.038Z,1.95
2022-10-10T08:16:22.509Z,2.08
2022-10-10T08:18:49.923Z,1.52
2022-10-10T08:21:17.055Z,2.45
2022-10-10T08:23:46.877Z,1.67
2022-10-10T08:26:18.075Z,1.50
2022-10-10T08:28:45.845Z,1.88
2022-10-10T08:31:15.992Z,1.83
2022-10-10T08:33:46.013Z,1.85
2022-10-10T08:36:22.181Z,1.95
2022-10-10T08:38:49.848Z,1.70
2022-10-10T08:41:32.127Z,1.95
2022-10-10T08:44:04.485Z,2.30
2022-10-10T08:49:14.222Z,1.77
2022-10-10T08:51:47.112Z,1.50
2022-10-10T08:54:16.374Z,2.53
2022-10-10T08:56:44.383Z,1.35
2022-10-10T08:59:38.961Z,1.75
2022-10-10T09:02:54.677Z,1.80
2022-10-10T09:05:24.055Z,2.45
2022-10-10T09:08:17.047Z,2.05
2022-10-10T09:10:55.821Z,2.53
2022-10-10T09:13:41.554Z,2.05
2022-10-10T09:16:52.113Z,1.95
2022-10-10T09:19:37.092Z,2.08
2022-10-10T09:22:11.070Z,1.70
2022-10-10T09:24:53.178Z,1.63
2022-10-10T09:27:29.092Z,1.48
2022-10-10T09:30:04.464Z,2.17
2022-10-10T09:32:40.628Z,2.03
2022-10-10T09:35:22.167Z,2.20
2022-10-10T09:37:53.141Z,2.35
2022-10-10T09:40:31.521Z,2.45
2022-10-10T09:43:01.199Z,2.83
2022-10-10T09:45:36.871Z,2.40
2022-10-10T09:48:04.355Z,2.13
2022-10-10T09:50:31.591Z,2.00
2022-10-10T09:52:59.917Z,2.05
2022-10-10T09:55:40.478Z,2.70
2022-10-10T09:58:20.799Z,2.42
2022-10-10T10:00:48.089Z,3.10
2022-10-10T10:03:21.747Z,3.15
2022-10-10T10:06:00.880Z,2.88
2022-10-10T10:08:33.573Z,2.33
2022-10-10T10:11:02.225Z,2.40
2022-10-10T10:13:37.416Z,2.85
2022-10-10T10:16:10.428Z,2.97
2022-10-10T10:18:46.063Z,3.28
2022-10-10T10:21:26.273Z,3.42
2022-10-10T10:23:59.619Z,2.55
2022-10-10T10:26:29.967Z,2.92
2022-10-10T10:28:59.901Z,2.92
2022-10-10T10:31:35.633Z,2.33
2022-10-10T10:34:20.886Z,2.40
2022-10-10T10:37:03.231Z,2.88
2022-10-10T10:40:07.847Z,3.15
2022-10-10T10:42:50.289Z,2.45
2022-10-10T10:48:20.736Z,2.85
2022-10-10T10:51:09.273Z,2.33
2022-10-10T10:54:00.751Z,2.20
2022-10-10T10:56:36.208Z,1.77
2022-10-10T10:59:41.843Z,2.75
2022-10-10T11:02:31.504Z,1.60
2022-10-10T11:05:35.299Z,2.88
2022-10-10T11:08:26.533Z,2.33
2022-10-10T11:11:28.045Z,2.67
2022-10-10T11:14:27.179Z,1.50
2022-10-10T11:17:17.152Z,2.00
2022-10-10T11:20:09.705Z,2.67
2022-10-10T11:22:46.227Z,3.28
2022-10-10T11:25:23.835Z,2.30
2022-10-10T11:28:30.696Z,1.67
2022-10-10T11:31:03.200Z,2.42
2022-10-10T11:33:48.320Z,1.73
2022-10-10T11:36:25.205Z,2.17
2022-10-10T11:39:18.485Z,1.83
2022-10-10T11:41:52.225Z,2.90
2022-10-10T11:44:31.497Z,2.08
2022-10-10T11:47:07.611Z,2.92
2022-10-10T11:49:46.952Z,2.55
2022-10-10T11:52:34.455Z,1.65
2022-10-10T11:55:26.625Z,2.00
2022-10-10T11:57:57.932Z,1.20
2022-10-10T12:00:28.678Z,2.15
2022-10-10T12:02:57.489Z,1.70
2022-10-10T12:05:29.924Z,1.42
2022-10-10T12:07:57.212Z,1.30
2022-10-10T12:10:32.306Z,1.85
2022-10-10T12:13:24.508Z,1.20
2022-10-10T12:15:54.902Z,2.33
2022-10-10T12:18:45.712Z,1.30
2022-10-10T12:21:16.269Z,1.75
2022-10-10T12:23:48.405Z,1.70
2022-10-10T12:26:17.756Z,1.70
2022-10-10T12:29:09.921Z,2.00
2022-10-10T12:31:39.347Z,1.95
2022-10-10T12:34:15.468Z,1.70
2022-10-10T12:36:58.013Z,1.23
2022-10-10T12:41:52.076Z,1.30
2022-10-10T12:44:34.533Z,1.85
2022-10-10T12:50:09.912Z,1.60
2022-10-10T12:52:46.004Z,2.20
2022-10-10T12:55:30.169Z,1.55
2022-10-10T12:58:03.115Z,1.58
2022-10-10T13:00:42.430Z,2.67
2022-10-10T13:03:39.584Z,1.30
2022-10-10T13:06:25.388Z,1.88
2022-10-10T13:08:55.186Z,1.73
2022-10-10T13:11:22.345Z,2.35
2022-10-10T13:13:54.949Z,2.20
2022-10-10T13:16:33.648Z,1.98
2022-10-10T13:19:01.402Z,1.60
2022-10-10T13:21:34.067Z,2.25
2022-10-10T13:24:17.908Z,2.20
2022-10-10T13:26:51.059Z,2.83
2022-10-10T13:29:39.589Z,2.38
2022-10-10T13:32:21.590Z,1.80
2022-10-10T13:35:13.501Z,2.35
2022-10-10T13:37:42.238Z,2.15
2022-10-10T13:40:23.311Z,2.15
2022-10-10T13:42:55.223Z,1.88
2022-10-10T13:45:41.280Z,2.00
2022-10-10T13:48:31.186Z,1.67
2022-10-10T13:51:13.193Z,2.22
2022-10-10T13:53:49.783Z,1.77
2022-10-10T13:56:26.487Z,1.90
2022-10-10T13:59:14.853Z,2.25
2022-10-10T14:01:55.327Z,2.30
2022-10-10T14:04:43.548Z,2.05
2022-10-10T14:07:29.134Z,1.83
2022-10-10T14:10:01.115Z,2.42
2022-10-10T14:12:33.708Z,1.83
2022-10-10T14:15:02.691Z,2.13
2022-10-10T14:17:30.254Z,2.03
2022-10-10T14:19:58.307Z,1.85
2022-10-10T14:22:25.940Z,2.08
2022-10-10T14:24:53.606Z,2.10
2022-10-10T14:27:24.258Z,1.60
2022-10-10T14:29:55.941Z,1.65
2022-10-10T14:32:23.966Z,1.85
2022-10-10T14:34:51.257Z,1.73
2022-10-10T14:37:25.829Z,1.67
2022-10-10T14:39:53.923Z,2.05
2022-10-10T14:42:22.910Z,2.45
2022-10-10T14:44:50.266Z,1.60
2022-10-10T14:47:22.811Z,1.80
2022-10-10T14:49:50.122Z,2.60
2022-10-10T14:52:17.336Z,2.28
2022-10-10T14:54:44.688Z,1.27
2022-10-10T14:57:15.070Z,1.63
2022-10-10T14:59:48.451Z,1.33
2022-10-10T15:02:22.065Z,1.95
2022-10-10T15:04:50.105Z,2.10
2022-10-10T15:07:18.006Z,1.65
2022-10-10T15:12:34.990Z,1.73
2022-10-10T15:15:02.319Z,2.13
2022-10-10T15:17:31.061Z,2.22
2022-10-10T15:19:58.211Z,1.75
2022-10-10T15:22:25.373Z,2.03
2022-10-10T15:24:52.578Z,2.53
2022-10-10T15:27:20.042Z,2.35
2022-10-10T15:29:47.275Z,2.17
2022-10-10T15:32:14.519Z,1.60
2022-10-10T15:34:41.718Z,1.70
2022-10-10T15:37:10.577Z,1.67
2022-10-10T15:39:38.087Z,1.42
2022-10-10T15:42:13.254Z,1.80
2022-10-10T15:44:46.498Z,1.63
2022-10-10T15:47:15.682Z,2.03
2022-10-10T15:49:43.034Z,1.55
2022-10-10T15:52:10.644Z,1.52
2022-10-10T15:54:37.895Z,1.73
2022-10-10T15:57:05.143Z,1.70
2022-10-10T15:59:32.570Z,1.65
2022-10-10T16:01:59.722Z,2.63
2022-10-10T16:04:27.176Z,1.58
2022-10-10T16:07:19.915Z,2.03
2022-10-10T16:09:41.583Z,1.60
2022-10-10T16:12:09.052Z,2.00
2022-10-10T16:14:36.474Z,1.98
2022-10-10T16:17:03.840Z,2.42
2022-10-10T16:19:31.128Z,1.98
2022-10-10T16:21:58.274Z,2.58
2022-10-10T16:24:25.469Z,1.77
2022-10-10T16:26:52.680Z,1.90
2022-10-10T16:29:20.734Z,2.30
2022-10-10T16:31:47.891Z,2.38
2022-10-10T16:34:16.083Z,2.03
2022-10-10T16:36:43.454Z,2.47
2022-10-10T16:39:12.516Z,1.33
2022-10-10T16:41:47.963Z,2.03
2022-10-10T16:44:15.690Z,2.05
2022-10-10T16:46:42.865Z,2.42
2022-10-10T16:49:12.829Z,1.90
2022-10-10T16:51:40.268Z,1.98
2022-10-10T16:54:07.521Z,2.50
2022-10-10T16:56:35.648Z,2.60
2022-10-10T16:59:03.619Z,2.00
2022-10-10T17:01:30.807Z,2.33
2022-10-10T17:04:00.167Z,2.70
2022-10-10T17:06:34.867Z,2.42
2022-10-10T17:09:03.045Z,2.25
2022-10-10T17:11:30.338Z,2.20
2022-10-10T17:13:57.869Z,2.45
2022-10-10T17:19:15.623Z,2.28
2022-10-10T17:21:42.863Z,2.72
2022-10-10T17:24:10.108Z,2.65
2022-10-10T17:26:37.840Z,2.20
2022-10-10T17:29:05.189Z,1.92
2022-10-10T17:31:32.761Z,2.17
2022-10-10T17:34:00.033Z,2.33
2022-10-10T17:36:28.082Z,2.10
2022-10-10T17:38:56.294Z,1.75
2022-10-10T17:41:24.143Z,1.67
2022-10-10T17:43:51.719Z,1.77
2022-10-10T17:46:40.904Z,2.78
2022-10-10T17:49:10.235Z,2.78
2022-10-10T17:51:39.017Z,3.85
2022-10-10T17:54:07.058Z,4.82
2022-10-10T17:56:34.804Z,6.70
2022-10-10T17:59:02.538Z,8.00
2022-10-10T18:01:33.094Z,6.78
2022-10-10T18:04:01.913Z,6.18
2022-10-10T18:06:29.979Z,4.72
2022-10-10T18:08:57.711Z,4.75
2022-10-10T18:11:27.880Z,3.90
2022-10-10T18:14:00.332Z,3.42
2022-10-10T18:16:33.804Z,2.90
2022-10-10T18:19:01.578Z,2.75
2022-10-10T18:21:28.974Z,2.90
2022-10-10T18:23:56.633Z,3.10
2022-10-10T18:26:26.580Z,2.40
2022-10-10T18:28:55.842Z,3.25
2022-10-10T18:31:33.287Z,3.35
2022-10-10T18:34:02.292Z,2.75
2022-10-10T18:36:32.038Z,2.40
2022-10-10T18:39:01.681Z,3.17
2022-10-10T18:41:34.297Z,3.50
2022-10-10T18:44:04.589Z,3.13
2022-10-10T18:46:32.841Z,2.88
2022-10-10T18:49:01.797Z,2.70
2022-10-10T18:51:29.746Z,3.00
2022-10-10T18:54:02.242Z,3.22
2022-10-10T18:56:30.725Z,2.83
2022-10-10T18:59:01.388Z,3.85
2022-10-10T19:01:30.929Z,2.97
2022-10-10T19:03:58.124Z,3.42
2022-10-10T19:06:26.141Z,3.05
2022-10-10T19:08:57.887Z,3.63
2022-10-10T19:11:27.870Z,4.15
2022-10-10T19:13:55.177Z,3.80
2022-10-10T19:16:22.421Z,3.30
2022-10-10T19:18:49.526Z,3.92
2022-10-10T19:21:17.159Z,4.82
2022-10-10T19:23:44.817Z,3.67
2022-10-10T19:26:14.141Z,3.85
2022-10-10T19:28:42.421Z,3.38
2022-10-10T19:31:13.243Z,3.95
2022-10-10T19:33:41.542Z,4.32
2022-10-10T19:36:10.812Z,4.35
2022-10-10T19:38:42.089Z,5.25
2022-10-10T19:41:13.061Z,5.53
2022-10-10T19:43:44.665Z,5.07
2022-10-10T19:46:14.365Z,4.53
2022-10-10T19:48:42.028Z,4.45
2022-10-10T19:51:14.145Z,4.50
2022-10-10T19:53:42.349Z,4.43
2022-10-10T19:56:20.087Z,5.00
2022-10-10T19:58:47.323Z,5.05
2022-10-10T20:01:18.859Z,4.70
2022-10-10T20:03:47.842Z,4.88
2022-10-10T20:06:17.489Z,5.28
2022-10-10T20:08:46.075Z,5.15
2022-10-10T20:11:13.871Z,5.53
2022-10-10T20:13:41.361Z,5.30
2022-10-10T20:16:10.523Z,4.47
2022-10-10T20:18:41.444Z,5.30
2022-10-10T20:21:18.193Z,5.25
2022-10-10T20:23:46.906Z,6.13
2022-10-10T20:26:18.408Z,5.00
2022-10-10T20:28:46.248Z,5.03
2022-10-10T20:31:20.199Z,4.95
2022-10-10T20:33:49.287Z,5.10
2022-10-10T20:36:18.200Z,5.25
2022-10-10T20:38:50.689Z,4.35
2022-10-10T20:41:17.810Z,4.40
2022-10-10T20:43:45.007Z,4.13
2022-10-10T20:46:13.656Z,4.95
2022-10-10T20:48:41.381Z,3.40
2022-10-10T20:51:11.140Z,3.22
2022-10-10T20:53:41.905Z,3.65
2022-10-10T20:56:11.698Z,3.67
2022-10-10T20:58:40.322Z,3.38
2022-10-10T21:01:10.797Z,4.10
2022-10-10T21:03:39.349Z,4.00
2022-10-10T21:06:28.353Z,4.20
2022-10-10T21:08:56.031Z,4.28
2022-10-10T21:11:23.937Z,5.35
2022-10-10T21:13:57.208Z,5.10
2022-10-10T21:16:26.585Z,4.90
2022-10-10T21:18:58.078Z,4.18
2022-10-10T21:21:27.593Z,3.83
2022-10-10T21:23:56.439Z,4.38
2022-10-10T21:26:25.821Z,4.38
2022-10-10T21:28:53.747Z,4.65
2022-10-10T21:31:23.697Z,4.20
2022-10-10T21:33:51.426Z,4.20
2022-10-10T21:36:20.756Z,4.07
2022-10-10T21:38:48.373Z,3.55
2022-10-10T21:41:21.739Z,3.50
2022-10-10T21:43:52.922Z,4.38
2022-10-10T21:46:23.506Z,4.10
2022-10-10T21:48:53.999Z,5.18
2022-10-10T21:51:21.964Z,3.75
2022-10-10T21:53:49.550Z,3.70
2022-10-10T21:56:16.840Z,4.43
2022-10-10T21:58:47.978Z,4.95
2022-10-10T22:01:20.562Z,3.40
2022-10-10T22:03:50.088Z,4.03
2022-10-10T22:06:20.580Z,4.05
2022-10-10T22:08:49.192Z,4.30
2022-10-10T22:11:19.289Z,5.03
2022-10-10T22:13:46.884Z,4.10
2022-10-10T22:16:16.188Z,4.00
2022-10-10T22:18:43.369Z,5.05
2022-10-10T22:21:14.333Z,4.75
2022-10-10T22:23:42.004Z,4.07
2022-10-10T22:26:11.761Z,4.32
2022-10-10T22:28:39.201Z,4.50
2022-10-10T22:31:10.918Z,4.13
2022-10-10T22:33:38.308Z,4.10
2022-10-10T22:36:06.804Z,4.20
2022-10-10T22:38:39.012Z,4.38
2022-10-10T22:41:06.855Z,4.45
2022-10-10T22:43:34.178Z,4.82
2022-10-10T22:46:01.998Z,4.05
2022-10-10T22:48:29.878Z,3.60
2022-10-10T22:51:08.316Z,4.20
2022-10-10T22:53:35.488Z,3.85
2022-10-10T22:56:03.595Z,3.85
2022-10-10T22:58:32.218Z,3.78
2022-10-10T23:01:07.272Z,3.67
2022-10-10T23:03:34.598Z,3.85
2022-10-10T23:06:02.635Z,3.85
2022-10-10T23:08:30.413Z,3.22
2022-10-10T23:10:58.326Z,3.25
2022-10-10T23:13:25.765Z,3.60
2022-10-10T23:15:52.895Z,3.70
2022-10-10T23:18:20.048Z,3.35
2022-10-10T23:20:47.978Z,4.00
2022-10-10T23:23:16.904Z,4.28
2022-10-10T23:25:46.432Z,3.33
2022-10-10T23:28:15.031Z,3.63
2022-10-10T23:30:44.881Z,3.72
2022-10-10T23:33:13.298Z,2.85
2022-10-10T23:35:40.570Z,2.75
2022-10-10T23:38:07.831Z,2.97
2022-10-10T23:40:35.305Z,3.80
2022-10-10T23:43:02.662Z,3.67
2022-10-10T23:45:29.839Z,3.53
2022-10-10T23:47:57.008Z,2.80
2022-10-10T23:50:24.291Z,3.40
2022-10-10T23:52:51.817Z,3.20
2022-10-10T23:55:19.112Z,3.00
2022-10-10T23:57:46.285Z,3.38
